Time;durP1;ratioP1;P1;durP2;ratioP2;P2;SDS_P1;SDS_P2;PMS_P1;PMS_P2;Temp;Humidity;BMP_temperature;BMP_pressure;BME280_temperature;BME280_humidity;BME280_pressure;Samples;Min_cycle;Max_cycle;Signal;HPM_P1;HPM_P2
2021/01/18 00:01:48;;;;;;;43.20;20.10;;;;;;;1.85;95.62;100830.38;5083778;28;20509;-60
2021/01/18 00:04:14;;;;;;;48.60;21.97;;;;;;;1.87;95.61;100831.19;5082521;28;20869;-60
2021/01/18 00:06:40;;;;;;;49.77;21.20;;;;;;;1.85;95.73;100833.00;5083764;28;20488;-60
2021/01/18 00:09:07;;;;;;;47.03;21.03;;;;;;;1.87;95.85;100835.56;5083326;28;20480;-59
2021/01/18 00:11:33;;;;;;;45.93;22.00;;;;;;;1.91;95.81;100837.16;5083689;28;20420;-59
2021/01/18 00:13:59;;;;;;;47.13;20.80;;;;;;;1.88;95.54;100842.56;5082948;28;20452;-60
2021/01/18 00:16:25;;;;;;;50.20;20.67;;;;;;;1.90;95.51;100842.50;5083462;28;20487;-60
2021/01/18 00:18:52;;;;;;;44.07;20.53;;;;;;;1.92;95.64;100853.84;5083064;28;20476;-60
2021/01/18 00:21:18;;;;;;;46.60;20.37;;;;;;;1.91;95.20;100846.84;5082624;28;20452;-60
2021/01/18 00:23:45;;;;;;;41.73;18.97;;;;;;;1.93;95.69;100856.41;5082842;28;20451;-61
2021/01/18 00:26:11;;;;;;;38.90;19.17;;;;;;;1.90;95.38;100853.91;5082814;28;20439;-60
2021/01/18 00:28:38;;;;;;;53.73;19.27;;;;;;;1.93;95.23;100848.50;5082792;28;20510;-60
2021/01/18 00:31:06;;;;;;;36.87;17.00;;;;;;;1.95;95.29;100851.06;5082614;28;20463;-60
2021/01/18 00:33:32;;;;;;;55.73;19.17;;;;;;;1.94;95.57;100844.91;5082489;28;20441;-60
2021/01/18 00:35:59;;;;;;;44.37;18.83;;;;;;;1.92;95.42;100844.13;5082490;28;20872;-60
2021/01/18 00:38:26;;;;;;;43.67;18.10;;;;;;;1.99;95.17;100849.97;5082976;28;20451;-60
2021/01/18 00:40:52;;;;;;;43.43;18.43;;;;;;;2.05;95.36;100841.81;5082522;28;20439;-60
2021/01/18 00:43:18;;;;;;;40.33;20.30;;;;;;;2.03;94.96;100846.28;5082281;28;20938;-60
2021/01/18 00:45:44;;;;;;;37.10;18.80;;;;;;;1.92;95.24;100838.84;5082996;28;20436;-60
2021/01/18 00:48:10;;;;;;;47.57;18.37;;;;;;;1.94;95.35;100841.44;5082202;28;20447;-60
2021/01/18 00:50:37;;;;;;;39.07;17.93;;;;;;;1.99;95.08;100847.34;5082093;28;20523;-60
2021/01/18 00:53:04;;;;;;;47.13;18.60;;;;;;;1.92;94.87;100853.84;5081509;28;20444;-59
2021/01/18 00:55:30;;;;;;;37.47;16.90;;;;;;;2.00;95.17;100854.34;5082136;28;20460;-60
2021/01/18 00:57:57;;;;;;;38.03;17.77;;;;;;;1.87;95.06;100851.41;5082433;28;20435;-60
2021/01/18 01:00:27;;;;;;;50.70;18.00;;;;;;;1.88;95.34;100853.97;5082120;28;20459;-60
2021/01/18 01:02:53;;;;;;;38.03;17.43;;;;;;;1.92;95.08;100854.69;5082106;28;20475;-60
2021/01/18 01:05:21;;;;;;;37.53;17.00;;;;;;;1.84;94.90;100856.81;5081331;28;20958;-60
2021/01/18 01:07:51;;;;;;;43.47;16.40;;;;;;;1.88;94.90;100848.69;5081671;28;20483;-59
2021/01/18 01:10:19;;;;;;;39.43;15.97;;;;;;;1.82;94.69;100840.19;5082151;28;20518;-60
2021/01/18 01:12:45;;;;;;;42.50;16.40;;;;;;;1.69;94.67;100861.84;5082294;28;20425;-60
2021/01/18 01:15:13;;;;;;;38.57;15.97;;;;;;;1.72;94.81;100852.09;5081750;28;20459;-60
2021/01/18 01:17:41;;;;;;;39.27;14.30;;;;;;;1.63;94.61;100850.72;5082090;28;20432;-60
2021/01/18 01:20:09;;;;;;;38.83;16.57;;;;;;;1.68;95.23;100851.38;5081416;28;20828;-60
2021/01/18 01:22:35;;;;;;;47.30;16.27;;;;;;;1.80;95.33;100845.53;5082305;28;20424;-59
2021/01/18 01:25:01;;;;;;;31.90;15.13;;;;;;;1.85;95.28;100846.19;5081993;28;20935;-60
2021/01/18 01:27:28;;;;;;;43.17;14.70;;;;;;;1.82;95.32;100850.75;5082114;28;20915;-59
2021/01/18 01:29:54;;;;;;;38.47;14.70;;;;;;;1.94;95.34;100844.91;5081838;28;20491;-59
2021/01/18 01:32:20;;;;;;;30.83;13.53;;;;;;;1.80;95.55;100845.53;5082335;28;20428;-60
2021/01/18 01:34:47;;;;;;;27.10;12.67;;;;;;;1.77;95.52;100848.34;5081168;28;20464;-60
2021/01/18 01:37:13;;;;;;;37.27;14.83;;;;;;;1.68;95.60;100849.63;5081816;28;20429;-60
2021/01/18 01:39:39;;;;;;;37.73;13.57;;;;;;;1.73;95.46;100852.03;5082014;28;20443;-60
2021/01/18 01:42:05;;;;;;;25.57;13.83;;;;;;;1.78;95.62;100847.41;5082075;28;20792;-60
2021/01/18 01:44:32;;;;;;;31.17;14.43;;;;;;;1.72;95.78;100846.81;5081431;28;20486;-60
2021/01/18 01:47:02;;;;;;;35.43;14.17;;;;;;;1.81;95.59;100847.28;5081375;28;20440;-59
2021/01/18 01:49:28;;;;;;;31.40;14.90;;;;;;;1.85;95.49;100843.56;5080974;28;20487;-59
2021/01/18 01:51:54;;;;;;;35.57;14.10;;;;;;;1.83;95.61;100845.41;5082150;28;20456;-59
2021/01/18 01:54:21;;;;;;;42.80;14.43;;;;;;;1.88;95.43;100848.69;5080034;28;20816;-59
2021/01/18 01:56:47;;;;;;;37.90;14.80;;;;;;;1.92;95.46;100844.13;5081670;28;20424;-60
2021/01/18 01:59:13;;;;;;;36.33;13.13;;;;;;;1.92;95.61;100843.28;5081474;28;20459;-60
2021/01/18 02:01:40;;;;;;;29.43;13.93;;;;;;;2.00;95.55;100846.44;5081770;28;20482;-60
2021/01/18 02:04:07;;;;;;;34.13;14.17;;;;;;;1.96;95.41;100845.72;5080856;28;20499;-60
2021/01/18 02:06:33;;;;;;;38.03;14.60;;;;;;;2.11;95.05;100833.59;5080318;28;20970;-60
2021/01/18 02:08:59;;;;;;;36.43;12.47;;;;;;;1.98;95.37;100828.03;5041435;28;20517;-60
2021/01/18 02:11:25;;;;;;;43.77;13.20;;;;;;;2.09;95.12;100830.16;5041400;28;20470;-60
2021/01/18 02:14:06;;;;;;;48.70;15.83;;;;;;;2.07;94.86;100829.41;5041070;28;20531;-60
2021/01/18 02:16:37;;;;;;;28.23;12.90;;;;;;;2.21;94.98;100828.75;5041691;28;20453;-60
2021/01/18 02:19:37;;;;;;;39.60;13.33;;;;;;;2.12;94.90;100823.88;5041178;28;20458;-59
2021/01/18 02:22:37;;;;;;;29.57;10.37;;;;;;;2.13;94.74;100828.25;5031639;28;20901;-60
2021/01/18 02:25:16;;;;;;;30.93;11.10;;;;;;;2.15;94.68;100826.38;5021366;28;20454;-60
2021/01/18 02:28:02;;;;;;;33.27;11.97;;;;;;;2.13;94.68;100825.59;5028979;28;20481;-60
2021/01/18 02:30:55;;;;;;;25.63;11.13;;;;;;;2.27;94.52;100825.78;5040993;28;20600;-60
2021/01/18 02:33:50;;;;;;;36.77;11.73;;;;;;;2.22;94.48;100831.31;5040352;28;20458;-60
2021/01/18 02:36:17;;;;;;;33.40;13.00;;;;;;;2.26;94.42;100832.88;5024001;28;20461;-60
2021/01/18 02:38:56;;;;;;;29.90;13.77;;;;;;;2.23;94.48;100830.38;5041330;28;20489;-60
2021/01/18 02:41:30;;;;;;;33.17;12.30;;;;;;;2.32;94.52;100833.50;5038830;28;20476;-60
2021/01/18 02:44:01;;;;;;;31.67;12.80;;;;;;;2.21;94.80;100840.13;5040788;28;20468;-60
2021/01/18 02:46:28;;;;;;;30.23;12.70;;;;;;;2.33;94.29;100833.44;5040731;28;20484;-60
2021/01/18 02:48:55;;;;;;;33.13;11.20;;;;;;;2.31;94.67;100835.28;5040705;28;20528;-60
2021/01/18 02:51:23;;;;;;;35.50;11.90;;;;;;;2.30;94.84;100838.84;5040813;28;20481;-59
2021/01/18 02:53:57;;;;;;;31.30;10.53;;;;;;;2.30;94.40;100830.94;5040324;28;20453;-59
2021/01/18 02:56:25;;;;;;;27.63;10.47;;;;;;;2.31;94.86;100834.41;5040716;28;20973;-59
2021/01/18 02:58:53;;;;;;;32.63;10.43;;;;;;;2.36;94.85;100837.69;5040834;28;20445;-59
2021/01/18 03:01:30;;;;;;;25.43;11.13;;;;;;;2.33;94.65;100829.94;5041188;28;20465;-60
2021/01/18 03:04:03;;;;;;;30.83;12.90;;;;;;;2.35;94.58;100836.00;5040190;28;20464;-60
2021/01/18 03:06:33;;;;;;;23.27;11.60;;;;;;;2.44;94.61;100833.75;5043168;28;20484;-59
2021/01/18 03:09:03;;;;;;;36.13;11.97;;;;;;;2.38;94.73;100839.34;5044412;28;20489;-59
2021/01/18 03:11:32;;;;;;;32.53;13.47;;;;;;;2.33;94.72;100843.97;5044234;28;20808;-59
2021/01/18 03:14:03;;;;;;;31.17;13.70;;;;;;;2.33;94.63;100843.13;5044172;28;20499;-59
2021/01/18 03:16:32;;;;;;;32.77;11.30;;;;;;;2.34;94.64;100842.19;5044346;28;20468;-59
2021/01/18 03:19:00;;;;;;;27.57;10.77;;;;;;;2.30;94.64;100846.75;5044280;28;20791;-58
2021/01/18 03:21:26;;;;;;;35.57;11.60;;;;;;;2.43;94.14;100845.25;5044358;28;20453;-59
2021/01/18 03:23:53;;;;;;;38.23;11.10;;;;;;;2.35;94.10;100847.41;5043555;28;20965;-58
2021/01/18 03:26:23;;;;;;;27.00;11.53;;;;;;;2.33;94.37;100843.97;5043884;28;20446;-59
2021/01/18 03:28:50;;;;;;;29.20;12.83;;;;;;;2.40;94.44;100839.28;5044168;28;20441;-58
2021/01/18 03:31:16;;;;;;;27.07;12.33;;;;;;;2.26;94.72;100843.41;5044636;28;20860;-59
2021/01/18 03:33:42;;;;;;;32.73;11.10;;;;;;;2.33;94.18;100846.63;5044092;28;20437;-59
2021/01/18 03:36:08;;;;;;;26.97;10.00;;;;;;;2.41;94.30;100844.47;5042853;28;20824;-59
2021/01/18 03:38:34;;;;;;;23.30;10.93;;;;;;;2.39;94.28;100843.69;5044385;28;20429;-59
2021/01/18 03:41:02;;;;;;;28.33;11.13;;;;;;;2.30;94.46;100843.28;5044563;28;20476;-58
2021/01/18 03:43:28;;;;;;;31.57;11.00;;;;;;;2.33;94.81;100846.63;5044532;28;20456;-59
2021/01/18 03:45:54;;;;;;;29.63;11.37;;;;;;;2.31;94.65;100845.84;5044072;28;20500;-59
2021/01/18 03:48:20;;;;;;;32.10;11.50;;;;;;;2.34;94.86;100843.03;5044084;28;20446;-59
2021/01/18 03:50:49;;;;;;;30.83;11.40;;;;;;;2.40;94.54;100842.75;5042834;28;20898;-59
2021/01/18 03:53:15;;;;;;;22.37;12.80;;;;;;;2.38;94.57;100835.88;5043818;28;20440;-59
2021/01/18 03:55:41;;;;;;;30.77;12.47;;;;;;;2.31;94.41;100845.84;5043476;28;20992;-59
2021/01/18 03:58:08;;;;;;;45.80;13.27;;;;;;;2.32;94.84;100846.69;5044138;28;20456;-59
2021/01/18 04:00:36;;;;;;;42.43;12.73;;;;;;;2.28;94.39;100843.34;5043266;28;20446;-59
2021/01/18 04:03:03;;;;;;;29.87;11.73;;;;;;;2.33;94.50;100843.97;5043517;28;20461;-59
2021/01/18 04:05:29;;;;;;;26.70;10.90;;;;;;;2.23;94.90;100833.00;5043272;28;20489;-59
2021/01/18 04:07:56;;;;;;;22.17;11.40;;;;;;;2.29;94.69;100834.50;5065695;28;20555;-59
2021/01/18 04:10:24;;;;;;;27.07;10.70;;;;;;;2.25;94.77;100839.06;5083499;28;20487;-59
2021/01/18 04:12:51;;;;;;;30.53;13.40;;;;;;;2.28;95.00;100837.22;5083799;28;20832;-58
2021/01/18 04:15:19;;;;;;;28.87;12.87;;;;;;;2.31;94.85;100834.41;5083172;28;20966;-59
2021/01/18 04:17:47;;;;;;;20.80;11.00;;;;;;;2.36;94.21;100832.41;5082937;28;20467;-59
2021/01/18 04:20:14;;;;;;;26.17;11.90;;;;;;;2.24;94.53;100834.72;5082556;28;20448;-59
2021/01/18 04:22:44;;;;;;;25.57;11.10;;;;;;;2.40;94.50;100831.34;5083500;28;20942;-59
2021/01/18 04:25:12;;;;;;;21.00;9.60;;;;;;;2.38;94.04;100825.31;5082670;28;20466;-59
2021/01/18 04:27:38;;;;;;;20.20;10.43;;;;;;;2.42;94.18;100827.69;5083777;28;20463;-58
2021/01/18 04:30:06;;;;;;;24.10;11.33;;;;;;;2.48;93.53;100830.97;5082880;28;20518;-59
2021/01/18 04:32:33;;;;;;;25.73;12.40;;;;;;;2.37;93.62;100826.22;5083366;28;20472;-59
2021/01/18 04:34:59;;;;;;;17.77;11.53;;;;;;;2.32;94.00;100823.78;5081897;28;20478;-58
2021/01/18 04:37:25;;;;;;;22.80;13.07;;;;;;;2.25;93.91;100840.84;5083746;28;20428;-58
2021/01/18 04:39:51;;;;;;;21.53;12.37;;;;;;;2.28;94.16;100839.88;5083015;28;21064;-59
2021/01/18 04:42:18;;;;;;;30.90;15.13;;;;;;;2.18;94.50;100824.44;5083419;28;20437;-59
2021/01/18 04:44:44;;;;;;;30.03;15.83;;;;;;;2.13;94.19;100826.44;5083015;28;20455;-59
2021/01/18 04:47:11;;;;;;;24.80;13.53;;;;;;;2.07;94.40;100845.22;5083083;28;20957;-59
2021/01/18 04:49:40;;;;;;;27.40;15.10;;;;;;;2.03;94.72;100835.72;5082088;28;20487;-59
2021/01/18 04:52:09;;;;;;;27.20;14.10;;;;;;;2.08;94.62;100831.09;5083176;28;20463;-59
2021/01/18 04:54:39;;;;;;;27.73;15.13;;;;;;;2.20;94.07;100833.13;5081781;28;20463;-59
2021/01/18 04:57:10;;;;;;;26.43;13.80;;;;;;;2.22;93.69;100849.78;5082605;28;20432;-59
2021/01/18 04:59:43;;;;;;;25.43;14.50;;;;;;;2.16;94.09;100842.13;5082764;28;20501;-59
2021/01/18 05:02:13;;;;;;;29.33;14.27;;;;;;;2.15;94.43;100840.41;5081934;28;20440;-58
2021/01/18 05:04:41;;;;;;;38.47;16.00;;;;;;;2.20;94.30;100837.56;5082137;28;20448;-59
2021/01/18 05:07:52;;;;;;;30.43;15.20;;;;;;;2.18;94.33;100832.38;5081960;28;20518;-58
2021/01/18 05:10:25;;;;;;;33.40;16.43;;;;;;;2.17;94.43;100835.06;5082212;28;20480;-59
2021/01/18 05:12:55;;;;;;;30.90;16.47;;;;;;;2.20;94.18;100833.13;5081960;28;20468;-59
2021/01/18 05:15:22;;;;;;;28.40;15.97;;;;;;;2.21;94.28;100834.03;5074388;28;20459;-59
2021/01/18 05:17:49;;;;;;;38.57;17.10;;;;;;;2.23;94.47;100833.00;5080333;28;20452;-60
2021/01/18 05:20:17;;;;;;;36.50;18.27;;;;;;;2.15;94.32;100832.50;5080145;28;20629;-59
2021/01/18 05:22:47;;;;;;;44.30;18.53;;;;;;;2.26;94.38;100832.88;5061351;28;20440;-59
2021/01/18 05:25:14;;;;;;;29.13;15.53;;;;;;;2.26;94.84;100837.28;5069342;28;20508;-59
2021/01/18 05:27:58;;;;;;;33.73;17.70;;;;;;;2.25;94.87;100839.06;5080963;28;20444;-59
2021/01/18 05:30:24;;;;;;;27.17;17.57;;;;;;;2.30;94.18;100841.50;5081015;28;20484;-59
2021/01/18 05:33:00;;;;;;;36.27;17.37;;;;;;;2.23;94.38;100838.28;5080165;28;20440;-59
2021/01/18 05:35:27;;;;;;;30.33;17.70;;;;;;;2.18;94.42;100837.63;5079811;28;20455;-60
2021/01/18 05:38:00;;;;;;;35.77;16.60;;;;;;;2.26;94.73;100832.03;5080801;28;20463;-60
2021/01/18 05:40:27;;;;;;;31.37;17.10;;;;;;;2.17;94.38;100830.69;5079827;28;20455;-59
2021/01/18 05:42:54;;;;;;;24.50;14.07;;;;;;;2.15;93.92;100827.22;5080498;28;20816;-59
2021/01/18 05:45:28;;;;;;;28.70;15.87;;;;;;;2.16;93.89;100834.22;5080229;28;20940;-59
2021/01/18 05:47:55;;;;;;;27.93;14.20;;;;;;;2.19;94.17;100838.53;5079874;28;20459;-59
2021/01/18 05:50:23;;;;;;;34.33;15.30;;;;;;;2.15;94.04;100843.06;5080009;28;20509;-59
2021/01/18 05:52:50;;;;;;;24.40;14.10;;;;;;;2.32;93.61;100841.41;5079833;28;20455;-61
2021/01/18 05:55:18;;;;;;;21.20;14.90;;;;;;;2.22;93.81;100839.22;5078115;28;20493;-59
2021/01/18 05:57:46;;;;;;;27.07;14.00;;;;;;;2.31;93.73;100842.34;5081148;28;20436;-59
2021/01/18 06:00:14;;;;;;;24.97;13.80;;;;;;;2.25;93.78;100848.75;5080443;28;20451;-59
2021/01/18 06:02:47;;;;;;;29.60;15.10;;;;;;;2.38;93.81;100841.13;5077644;28;20455;-59
2021/01/18 06:05:14;;;;;;;31.67;15.73;;;;;;;2.34;93.87;100829.00;5078094;28;20487;-60
2021/01/18 06:07:40;;;;;;;24.17;15.90;;;;;;;2.47;93.59;100834.56;5080065;28;20502;-59
2021/01/18 06:10:08;;;;;;;27.80;15.67;;;;;;;2.39;93.53;100835.75;5079588;28;20511;-59
2021/01/18 06:12:36;;;;;;;40.07;18.07;;;;;;;2.41;93.91;100835.69;5079174;28;20451;-59
2021/01/18 06:15:08;;;;;;;30.57;18.13;;;;;;;2.39;93.75;100835.75;5079420;28;20789;-59
2021/01/18 06:17:36;;;;;;;34.73;18.97;;;;;;;2.40;93.68;100839.28;5079698;28;20490;-59
2021/01/18 06:20:04;;;;;;;39.80;19.93;;;;;;;2.39;94.37;100841.03;5079584;28;20505;-59
2021/01/18 06:22:30;;;;;;;39.53;20.23;;;;;;;2.37;94.55;100836.78;5080242;28;20473;-59
2021/01/18 06:24:57;;;;;;;38.03;19.07;;;;;;;2.45;94.32;100843.41;5079426;28;20455;-59
2021/01/18 06:27:31;;;;;;;42.50;20.30;;;;;;;2.41;93.92;100843.59;5079980;28;20448;-59
2021/01/18 06:29:57;;;;;;;34.33;17.83;;;;;;;2.48;93.97;100841.53;5079362;28;20511;-60
2021/01/18 06:32:29;;;;;;;36.87;20.20;;;;;;;2.52;93.73;100835.16;5079359;28;20476;-59
2021/01/18 06:34:59;;;;;;;38.93;18.73;;;;;;;2.42;93.72;100838.25;5078725;28;20455;-59
2021/01/18 06:37:29;;;;;;;38.43;18.27;;;;;;;2.48;93.74;100839.75;5079409;28;20517;-59
2021/01/18 06:39:59;;;;;;;36.60;17.97;;;;;;;2.48;93.48;100834.47;5080898;28;20808;-59
2021/01/18 06:42:26;;;;;;;33.73;17.57;;;;;;;2.47;93.56;100827.50;5080472;28;20489;-60
2021/01/18 06:44:53;;;;;;;30.30;16.50;;;;;;;2.48;93.20;100821.25;5077613;28;20440;-59
2021/01/18 06:47:29;;;;;;;39.40;19.93;;;;;;;2.50;93.46;100826.47;5082239;28;20440;-58
2021/01/18 06:49:57;;;;;;;42.20;18.50;;;;;;;2.46;93.95;100838.97;5083419;28;20487;-63
2021/01/18 06:52:25;;;;;;;42.73;19.20;;;;;;;2.54;93.56;100838.59;5079812;28;20447;-63
2021/01/18 06:54:56;;;;;;;45.97;20.20;;;;;;;2.52;93.35;100843.97;5081914;28;20478;-63
2021/01/18 06:57:29;;;;;;;41.63;18.97;;;;;;;2.49;93.85;100840.63;5083529;28;20439;-62
2021/01/18 06:59:58;;;;;;;51.37;20.30;;;;;;;2.56;93.37;100842.03;5083773;28;20804;-62
2021/01/18 07:02:27;;;;;;;38.50;19.97;;;;;;;2.53;93.65;100843.00;5082216;28;20440;-62
2021/01/18 07:05:07;;;;;;;37.03;19.67;;;;;;;2.51;93.58;100852.78;5083316;28;20475;-62
2021/01/18 07:07:35;;;;;;;34.70;20.43;;;;;;;2.53;93.85;100847.44;5083955;28;20479;-63
2021/01/18 07:10:05;;;;;;;31.87;17.83;;;;;;;2.49;93.38;100848.53;5075418;28;20475;-64
2021/01/18 07:12:31;;;;;;;38.80;19.70;;;;;;;2.52;93.49;100846.59;5084174;28;20547;-66
2021/01/18 07:14:59;;;;;;;37.80;21.13;;;;;;;2.62;93.40;100849.63;5083282;28;20449;-65
2021/01/18 07:17:30;;;;;;;40.37;20.60;;;;;;;2.54;93.74;100843.88;5083780;28;20448;-64
2021/01/18 07:19:59;;;;;;;37.40;20.10;;;;;;;2.47;93.86;100848.59;5082726;28;20458;-66
2021/01/18 07:22:35;;;;;;;38.30;20.83;;;;;;;2.50;93.95;100843.19;5081595;28;20448;-61
2021/01/18 07:25:05;;;;;;;37.40;21.77;;;;;;;2.55;93.44;100845.56;5083375;28;20447;-64
2021/01/18 07:27:40;;;;;;;35.97;19.83;;;;;;;2.57;93.30;100846.34;5083692;28;20816;-64
2021/01/18 07:30:09;;;;;;;37.83;19.53;;;;;;;2.57;93.34;100846.34;5077722;28;20497;-64
2021/01/18 07:32:35;;;;;;;34.63;20.73;;;;;;;2.56;93.40;100840.22;5084533;28;20455;-64
2021/01/18 07:35:04;;;;;;;37.10;24.20;;;;;;;2.57;93.26;100851.63;5080047;28;20436;-65
2021/01/18 07:37:30;;;;;;;42.90;22.50;;;;;;;2.58;93.57;100842.78;5088738;28;20440;-65
2021/01/18 07:40:09;;;;;;;30.80;22.77;;;;;;;2.52;93.43;100845.72;5082363;28;20458;-65
2021/01/18 07:42:40;;;;;;;47.50;22.50;;;;;;;2.54;93.74;100843.88;5081558;28;20677;-65
2021/01/18 07:45:15;;;;;;;49.13;23.33;;;;;;;2.58;93.41;100846.28;5081963;28;20681;-65
2021/01/18 07:48:07;;;;;;;34.70;23.30;;;;;;;2.56;93.72;100831.47;5082572;28;20431;-63
2021/01/18 07:50:35;;;;;;;44.40;23.07;;;;;;;2.58;93.42;100835.72;5079967;28;20484;-63
2021/01/18 07:53:03;;;;;;;42.23;24.27;;;;;;;2.63;92.93;100831.06;5077185;28;20470;-64
2021/01/18 07:55:30;;;;;;;39.10;22.60;;;;;;;2.67;93.03;100825.66;5070206;28;20837;-63
2021/01/18 07:58:12;;;;;;;48.27;26.10;;;;;;;2.60;93.16;100825.97;5079492;28;20502;-63
2021/01/18 08:00:39;;;;;;;36.30;22.70;;;;;;;2.62;93.07;100825.88;5080775;28;20472;-61
2021/01/18 08:03:23;;;;;;;51.80;24.20;;;;;;;2.65;93.20;100820.44;5078196;28;20501;-63
2021/01/18 08:05:52;;;;;;;41.03;22.13;;;;;;;2.64;92.86;100816.13;5079062;28;20455;-64
2021/01/18 08:08:19;;;;;;;49.23;25.00;;;;;;;2.64;92.62;100808.19;5081164;28;20506;-64
2021/01/18 08:10:57;;;;;;;44.57;24.87;;;;;;;2.67;92.82;100817.72;5070846;28;20492;-64
2021/01/18 08:13:31;;;;;;;40.37;23.03;;;;;;;2.63;92.81;100823.16;5080164;28;20451;-63
2021/01/18 08:15:59;;;;;;;41.43;24.40;;;;;;;2.71;92.76;100827.19;5080387;28;20857;-64
2021/01/18 08:18:26;;;;;;;49.07;25.13;;;;;;;2.77;92.85;100826.91;5081057;28;20546;-64
2021/01/18 08:20:52;;;;;;;45.60;24.87;;;;;;;2.76;92.32;100815.50;5077438;28;20443;-64
2021/01/18 08:23:40;;;;;;;43.43;23.47;;;;;;;2.73;92.43;100814.81;5079545;28;20497;-64
2021/01/18 08:26:10;;;;;;;38.73;25.00;;;;;;;2.67;92.78;100815.09;5076460;28;20476;-71
2021/01/18 08:28:37;;;;;;;40.93;24.30;;;;;;;2.73;92.50;100817.44;5078574;28;20523;-64
2021/01/18 08:31:14;;;;;;;52.03;26.27;;;;;;;2.80;92.53;100818.84;5082375;28;20500;-64
2021/01/18 08:33:40;;;;;;;47.17;24.67;;;;;;;2.74;92.33;100824.41;5072328;28;20443;-63
2021/01/18 08:36:06;;;;;;;55.17;26.30;;;;;;;2.75;92.66;100819.06;5073844;28;20834;-63
2021/01/18 08:38:33;;;;;;;54.10;28.10;;;;;;;2.78;92.39;100812.78;5065462;28;20451;-63
2021/01/18 08:41:08;;;;;;;49.50;26.10;;;;;;;2.87;92.05;100814.94;5077914;28;20448;-63
2021/01/18 08:44:03;;;;;;;65.50;26.93;;;;;;;2.81;92.38;100810.84;5072855;28;20516;-64
2021/01/18 08:46:34;;;;;;;49.57;26.00;;;;;;;2.84;92.32;100817.75;5073600;28;20468;-63
2021/01/18 08:49:27;;;;;;;41.83;24.70;;;;;;;2.93;92.14;100817.25;5079547;28;20459;-64
2021/01/18 08:51:53;;;;;;;50.67;27.67;;;;;;;2.88;91.88;100816.66;5080611;28;20459;-64
2021/01/18 08:54:33;;;;;;;46.33;27.47;;;;;;;2.89;92.36;100814.88;5069536;28;20443;-63
2021/01/18 08:57:19;;;;;;;50.17;25.03;;;;;;;2.98;91.76;100815.25;5062711;28;20454;-64
2021/01/18 08:59:46;;;;;;;64.40;28.57;;;;;;;2.97;91.85;100824.13;5070898;28;20476;-63
2021/01/18 09:02:17;;;;;;;56.60;28.13;;;;;;;2.95;91.78;100817.19;5073424;28;20830;-62
2021/01/18 09:04:43;;;;;;;61.00;27.80;;;;;;;3.04;91.50;100821.16;5061703;28;20453;-62
2021/01/18 09:07:10;;;;;;;50.97;28.20;;;;;;;3.00;91.85;100821.34;5064542;28;20513;-62
2021/01/18 09:09:39;;;;;;;53.43;28.93;;;;;;;3.04;92.15;100824.66;5072290;28;20501;-61
2021/01/18 09:12:08;;;;;;;63.83;29.00;;;;;;;2.98;91.94;100830.25;5059694;28;20505;-61
2021/01/18 09:14:35;;;;;;;56.30;29.03;;;;;;;2.97;91.96;100813.56;5060513;28;20453;-61
2021/01/18 09:17:07;;;;;;;49.93;27.70;;;;;;;3.10;92.00;100818.22;5066619;28;20918;-61
2021/01/18 09:19:50;;;;;;;55.37;28.23;;;;;;;2.99;91.64;100827.53;5066737;28;20489;-61
2021/01/18 09:22:18;;;;;;;58.30;28.77;;;;;;;2.94;91.70;100826.91;5066616;28;20440;-61
2021/01/18 09:24:44;;;;;;;57.00;29.90;;;;;;;2.98;91.81;100823.16;5070990;28;20456;-61
2021/01/18 09:27:11;;;;;;;55.57;29.73;;;;;;;2.92;92.34;100828.78;5059281;28;20445;-60
2021/01/18 09:29:37;;;;;;;55.43;30.47;;;;;;;2.95;92.51;100826.00;5064151;28;20490;-62
2021/01/18 09:32:03;;;;;;;55.87;28.37;;;;;;;2.92;92.27;100831.44;5078514;28;20447;-61
2021/01/18 09:34:30;;;;;;;47.07;29.07;;;;;;;2.90;91.89;100825.38;5063077;28;20495;-62
2021/01/18 09:37:04;;;;;;;48.60;24.87;;;;;;;2.93;92.14;100821.69;5061356;28;20551;-62
2021/01/18 09:39:31;;;;;;;47.50;27.40;;;;;;;2.92;91.79;100830.56;5079496;28;20435;-63
2021/01/18 09:41:57;;;;;;;45.57;27.37;;;;;;;2.95;91.54;100825.13;5068895;28;20479;-62
2021/01/18 09:44:24;;;;;;;48.63;26.47;;;;;;;2.94;91.36;100826.91;5066507;28;20459;-63
2021/01/18 09:46:50;;;;;;;45.60;25.10;;;;;;;2.95;91.63;100819.84;5067774;28;21020;-64
2021/01/18 09:49:24;;;;;;;44.77;26.27;;;;;;;3.06;91.24;100819.31;5058427;28;20449;-64
2021/01/18 09:51:50;;;;;;;49.50;26.67;;;;;;;3.11;90.61;100819.94;5059420;28;20457;-64
2021/01/18 09:54:18;;;;;;;44.53;25.70;;;;;;;3.07;91.30;100824.50;5064292;28;20444;-63
2021/01/18 09:56:44;;;;;;;46.70;25.10;;;;;;;3.14;90.77;100811.81;5077598;28;20474;-64
2021/01/18 09:59:13;;;;;;;50.23;26.63;;;;;;;3.12;90.52;100814.53;5073618;28;20449;-65
2021/01/18 10:01:40;;;;;;;44.80;25.13;;;;;;;3.16;90.28;100813.47;5065120;28;20460;-64
2021/01/18 10:04:08;;;;;;;45.67;25.17;;;;;;;3.22;90.50;100807.00;5071539;28;20444;-63
2021/01/18 10:06:37;;;;;;;47.57;24.73;;;;;;;3.23;90.32;100814.00;5062707;28;20468;-65
2021/01/18 10:09:04;;;;;;;44.87;24.33;;;;;;;3.28;90.12;100813.75;5038771;28;20566;-65
2021/01/18 10:11:40;;;;;;;45.97;24.47;;;;;;;3.27;89.72;100812.91;5031228;28;20516;-64
2021/01/18 10:14:17;;;;;;;40.87;22.50;;;;;;;3.32;89.54;100805.59;5019134;28;20446;-64
2021/01/18 10:17:00;;;;;;;42.50;22.50;;;;;;;3.35;89.64;100804.56;5019767;28;20485;-63
2021/01/18 10:19:27;;;;;;;41.67;20.70;;;;;;;3.41;88.76;100806.91;5031090;28;20683;-62
2021/01/18 10:21:54;;;;;;;35.50;22.13;;;;;;;3.43;88.99;100801.53;5028605;28;20469;-65
2021/01/18 10:24:25;;;;;;;38.17;21.47;;;;;;;3.43;88.65;100797.09;5025054;28;20973;-64
2021/01/18 10:27:02;;;;;;;36.80;20.70;;;;;;;3.42;88.15;100787.47;5037054;28;20457;-65
2021/01/18 10:29:29;;;;;;;36.30;21.90;;;;;;;3.41;88.67;100792.84;5032993;28;20950;-64
2021/01/18 10:31:56;;;;;;;41.63;21.13;;;;;;;3.34;88.87;100779.94;5021369;28;20451;-66
2021/01/18 10:34:28;;;;;;;40.67;21.30;;;;;;;3.37;88.68;100789.50;5033438;28;20503;-64
2021/01/18 10:36:56;;;;;;;41.67;18.43;;;;;;;3.33;88.32;100777.38;5035684;28;20483;-63
2021/01/18 10:39:29;;;;;;;45.83;22.57;;;;;;;3.24;89.30;100781.34;5024840;28;20445;-62
2021/01/18 10:42:04;;;;;;;39.43;19.80;;;;;;;3.34;88.60;100781.72;5038867;28;20456;-63
2021/01/18 10:44:30;;;;;;;33.67;21.43;;;;;;;3.34;89.11;100771.16;5024235;28;20442;-63
2021/01/18 10:46:57;;;;;;;34.63;20.83;;;;;;;3.38;88.79;100765.59;5020138;28;20453;-63
2021/01/18 10:49:24;;;;;;;40.80;23.47;;;;;;;3.34;88.49;100774.66;5030341;28;20450;-63
2021/01/18 10:52:05;;;;;;;36.77;21.37;;;;;;;3.38;88.82;100770.91;5029015;28;20459;-64
2021/01/18 10:54:31;;;;;;;32.50;16.27;;;;;;;3.39;88.25;100772.63;5032239;28;20480;-63
2021/01/18 10:56:59;;;;;;;36.27;22.47;;;;;;;3.36;88.42;100767.47;5035159;28;20454;-63
2021/01/18 10:59:26;;;;;;;39.33;21.20;;;;;;;3.38;88.85;100777.97;5031610;28;20463;-62
2021/01/18 11:02:01;;;;;;;36.70;21.80;;;;;;;3.46;88.64;100767.00;5029141;28;20462;-61
2021/01/18 11:04:28;;;;;;;37.63;24.30;;;;;;;3.45;88.59;100771.44;5025380;28;20446;-62
2021/01/18 11:06:55;;;;;;;40.53;21.63;;;;;;;3.48;88.50;100759.84;5029179;28;20462;-62
2021/01/18 11:09:31;;;;;;;39.50;22.20;;;;;;;3.51;88.46;100759.69;5072430;28;20509;-61
2021/01/18 11:11:59;;;;;;;42.83;24.20;;;;;;;3.48;88.44;100744.84;5078999;28;20458;-63
2021/01/18 11:14:27;;;;;;;45.60;23.47;;;;;;;3.42;88.92;100749.59;5078243;28;20527;-61
2021/01/18 11:17:01;;;;;;;42.67;24.27;;;;;;;3.45;88.80;100742.34;5066616;28;20915;-61
2021/01/18 11:19:27;;;;;;;44.90;24.73;;;;;;;3.47;88.84;100742.28;5065642;28;20463;-62
2021/01/18 11:21:53;;;;;;;45.37;26.13;;;;;;;3.50;88.83;100739.47;5077678;28;20451;-63
2021/01/18 11:24:20;;;;;;;46.37;26.27;;;;;;;3.63;88.14;100729.94;5068223;28;20460;-62
2021/01/18 11:26:50;;;;;;;47.23;24.53;;;;;;;3.64;88.48;100733.44;5077491;28;20467;-63
2021/01/18 11:29:16;;;;;;;56.20;26.90;;;;;;;3.68;88.56;100725.25;5077629;28;20448;-61